Time;durP1;ratioP1;P1;durP2;ratioP2;P2;SDS_P1;SDS_P2;PMS_P1;PMS_P2;Temp;Humidity;BMP_temperature;BMP_pressure;BME280_temperature;BME280_humidity;BME280_pressure;Samples;Min_cycle;Max_cycle;Signal;HPM_P1;HPM_P2
2021/11/06 00:00:32;;;;;;;18.48;1.85;;;9.40;99.90;;;;;;5056216;28;20441;-69
2021/11/06 00:02:57;;;;;;;29.50;2.92;;;9.40;99.90;;;;;;5056086;28;20503;-69
2021/11/06 00:05:23;;;;;;;18.92;2.85;;;9.50;99.90;;;;;;5071533;28;20063;-69
2021/11/06 00:07:49;;;;;;;21.98;2.08;;;9.40;99.90;;;;;;5049124;28;20040;-69
2021/11/06 00:10:15;;;;;;;23.52;3.05;;;9.50;99.90;;;;;;5052958;28;20033;-69
2021/11/06 00:12:41;;;;;;;14.05;2.28;;;9.50;99.90;;;;;;5055987;28;20036;-69
2021/11/06 00:15:07;;;;;;;12.90;2.08;;;9.60;99.90;;;;;;5052888;28;20029;-69
2021/11/06 00:17:34;;;;;;;21.30;2.35;;;9.60;99.90;;;;;;5055422;28;20036;-69
2021/11/06 00:20:00;;;;;;;29.80;2.78;;;9.70;99.90;;;;;;5053252;28;20099;-69
2021/11/06 00:22:26;;;;;;;29.42;2.97;;;9.80;99.90;;;;;;5055872;28;20044;-69
2021/11/06 00:24:52;;;;;;;23.40;2.95;;;9.80;99.90;;;;;;5052876;28;20024;-69
2021/11/06 00:27:18;;;;;;;12.75;1.92;;;9.90;99.90;;;;;;5055237;28;20033;-69
2021/11/06 00:29:43;;;;;;;11.25;2.33;;;10.00;99.90;;;;;;5056006;28;20443;-69
2021/11/06 00:32:09;;;;;;;32.08;3.38;;;10.00;99.90;;;;;;5041520;28;20037;-69
2021/11/06 00:34:35;;;;;;;29.33;3.38;;;10.10;99.90;;;;;;5035849;28;20021;-69
2021/11/06 00:37:01;;;;;;;20.90;2.55;;;10.20;99.90;;;;;;5045716;28;20024;-69
2021/11/06 00:39:27;;;;;;;25.63;2.55;;;10.20;99.90;;;;;;5046151;28;20401;-69
2021/11/06 00:41:52;;;;;;;21.15;2.60;;;10.20;99.90;;;;;;5045160;28;20509;-69
2021/11/06 00:44:18;;;;;;;28.08;2.30;;;10.20;99.90;;;;;;5055768;28;20035;-69
2021/11/06 00:46:45;;;;;;;22.17;3.58;;;10.20;99.90;;;;;;5055546;28;20025;-69
2021/11/06 00:49:11;;;;;;;23.85;2.80;;;10.20;99.90;;;;;;5055376;28;20025;-69
2021/11/06 00:51:36;;;;;;;25.10;2.65;;;10.10;99.90;;;;;;5048416;28;20051;-69
2021/11/06 00:54:02;;;;;;;18.98;3.22;;;10.10;99.90;;;;;;5034847;28;20029;-69
2021/11/06 00:56:28;;;;;;;25.67;3.30;;;10.10;99.90;;;;;;5037449;28;20038;-69
2021/11/06 00:58:53;;;;;;;16.70;2.80;;;10.10;99.90;;;;;;5035150;28;20033;-69
2021/11/06 01:01:19;;;;;;;28.58;4.32;;;10.00;99.90;;;;;;5039351;28;20017;-69
2021/11/06 01:03:44;;;;;;;23.70;3.10;;;10.00;99.90;;;;;;5055103;28;20428;-69
2021/11/06 01:06:10;;;;;;;29.73;4.47;;;10.00;99.90;;;;;;5053803;28;20029;-68
2021/11/06 01:08:36;;;;;;;27.52;3.97;;;10.00;99.90;;;;;;5035985;28;20060;-69
2021/11/06 01:11:02;;;;;;;34.80;3.22;;;10.00;99.90;;;;;;5037740;28;20069;-69
2021/11/06 01:13:28;;;;;;;29.70;3.85;;;9.90;99.90;;;;;;5034957;28;20044;-69
2021/11/06 01:15:53;;;;;;;28.05;3.47;;;9.90;99.90;;;;;;5034921;28;20026;-69
2021/11/06 01:18:19;;;;;;;34.20;4.57;;;9.90;99.90;;;;;;5052703;28;20025;-69
2021/11/06 01:20:44;;;;;;;21.98;3.33;;;10.00;99.90;;;;;;5054195;28;20056;-69
2021/11/06 01:23:10;;;;;;;34.78;5.45;;;10.00;99.90;;;;;;5078850;22;20049;-67
2021/11/06 01:25:37;;;;;;;37.22;5.20;;;10.00;99.90;;;;;;5054701;28;20025;-67
2021/11/06 01:28:02;;;;;;;36.33;4.20;;;10.00;99.90;;;;;;5051812;28;20027;-67
2021/11/06 01:30:28;;;;;;;36.97;5.55;;;10.10;99.90;;;;;;5036315;28;20030;-67
2021/11/06 01:32:54;;;;;;;27.73;4.63;;;10.00;99.90;;;;;;5054271;28;20380;-67
2021/11/06 01:35:19;;;;;;;31.98;4.93;;;10.10;99.90;;;;;;5054230;28;20024;-67
2021/11/06 01:37:46;;;;;;;28.48;5.75;;;10.20;99.90;;;;;;5054356;28;20053;-67
2021/11/06 01:40:15;;;;;;;34.20;5.28;;;10.30;99.90;;;;;;5054214;28;20079;-67
2021/11/06 01:42:41;;;;;;;36.45;3.67;;;10.30;99.90;;;;;;5054284;28;20108;-67
2021/11/06 01:45:08;;;;;;;35.38;4.57;;;10.30;99.90;;;;;;5041279;28;20060;-67
2021/11/06 01:47:34;;;;;;;32.03;4.75;;;10.20;99.90;;;;;;5051099;28;20082;-67
2021/11/06 01:50:00;;;;;;;32.90;3.85;;;10.20;99.90;;;;;;5054387;28;20025;-67
2021/11/06 01:52:25;;;;;;;29.15;4.20;;;10.20;99.90;;;;;;5051770;28;20039;-67
2021/11/06 01:54:51;;;;;;;22.00;2.72;;;10.20;99.90;;;;;;5054407;28;20044;-67
2021/11/06 01:57:17;;;;;;;22.90;3.70;;;10.10;99.90;;;;;;5052201;28;20076;-67
2021/11/06 01:59:44;;;;;;;33.38;4.43;;;10.10;99.90;;;;;;5053453;28;20392;-67
2021/11/06 02:02:10;;;;;;;22.13;3.38;;;10.00;99.90;;;;;;5050911;28;20039;-67
2021/11/06 02:04:36;;;;;;;41.55;4.93;;;10.00;99.90;;;;;;5053871;28;20028;-67
2021/11/06 02:07:03;;;;;;;15.48;2.97;;;10.00;99.90;;;;;;5049301;28;20028;-67
2021/11/06 02:09:29;;;;;;;26.58;3.13;;;10.00;99.90;;;;;;5053303;28;20500;-67
2021/11/06 02:11:55;;;;;;;20.02;3.00;;;10.00;99.90;;;;;;5052638;28;20053;-67
2021/11/06 02:14:22;;;;;;;34.17;3.58;;;10.00;99.90;;;;;;5034766;28;20096;-67
2021/11/06 02:16:47;;;;;;;33.60;3.67;;;10.00;99.90;;;;;;5042293;28;20021;-67
2021/11/06 02:19:13;;;;;;;18.80;2.83;;;10.00;99.90;;;;;;5053696;28;20025;-67
2021/11/06 02:21:39;;;;;;;21.55;2.88;;;10.00;99.90;;;;;;5051702;28;20108;-67
2021/11/06 02:24:06;;;;;;;22.17;3.70;;;10.00;99.90;;;;;;5052835;28;20096;-67
2021/11/06 02:26:32;;;;;;;32.75;3.03;;;10.00;99.90;;;;;;5052632;28;20029;-67
2021/11/06 02:29:00;;;;;;;26.52;2.75;;;10.00;99.90;;;;;;5035980;28;20028;-67
2021/11/06 02:31:27;;;;;;;22.20;2.65;;;10.10;99.90;;;;;;5037775;28;20029;-67
2021/11/06 02:33:53;;;;;;;22.70;3.72;;;10.20;99.90;;;;;;5048373;28;20524;-67
2021/11/06 02:36:19;;;;;;;22.65;2.55;;;10.10;99.90;;;;;;5053073;28;20033;-67
2021/11/06 02:38:45;;;;;;;31.52;3.80;;;10.20;99.90;;;;;;5051342;28;20034;-67
2021/11/06 02:41:10;;;;;;;23.50;4.07;;;10.20;99.90;;;;;;5052943;28;20032;-67
2021/11/06 02:43:36;;;;;;;25.05;3.22;;;10.30;99.90;;;;;;5053195;28;20537;-67
2021/11/06 02:46:02;;;;;;;48.92;3.97;;;10.40;99.90;;;;;;5050156;28;20028;-67
2021/11/06 02:48:28;;;;;;;28.13;4.53;;;10.50;99.90;;;;;;5053222;28;20396;-67
2021/11/06 02:50:53;;;;;;;34.35;4.57;;;10.50;99.90;;;;;;5045706;28;20029;-67
2021/11/06 02:53:21;;;;;;;32.60;5.07;;;10.50;99.90;;;;;;5033378;28;20421;-67
2021/11/06 02:55:48;;;;;;;18.80;3.38;;;10.50;99.90;;;;;;5038745;28;20414;-67
2021/11/06 02:58:14;;;;;;;28.63;4.15;;;10.60;99.90;;;;;;5045568;28;20021;-67
2021/11/06 03:00:41;;;;;;;28.73;4.45;;;10.70;99.90;;;;;;5033608;28;20025;-67
2021/11/06 03:03:06;;;;;;;17.52;2.72;;;10.70;99.90;;;;;;5035540;28;20511;-67
2021/11/06 03:05:32;;;;;;;31.30;3.53;;;10.80;99.90;;;;;;5052532;28;20023;-67
2021/11/06 03:07:59;;;;;;;18.85;3.28;;;10.80;99.90;;;;;;5052972;28;20028;-67
2021/11/06 03:10:25;;;;;;;34.13;4.10;;;10.80;99.90;;;;;;5052931;28;20553;-67
2021/11/06 03:12:52;;;;;;;30.92;4.68;;;10.90;99.90;;;;;;5047251;28;20033;-67
2021/11/06 03:15:18;;;;;;;28.55;4.70;;;10.90;99.90;;;;;;5035697;28;20033;-67
2021/11/06 03:17:44;;;;;;;41.65;4.00;;;10.80;99.90;;;;;;5037575;28;20476;-67
2021/11/06 03:20:12;;;;;;;25.15;4.47;;;10.70;99.90;;;;;;5038648;28;20083;-67
2021/11/06 03:22:38;;;;;;;24.73;3.05;;;10.60;99.90;;;;;;5036907;28;20431;-67
2021/11/06 03:25:06;;;;;;;30.38;3.15;;;10.50;99.90;;;;;;5039356;28;20104;-67
2021/11/06 03:27:32;;;;;;;33.20;3.90;;;10.30;99.90;;;;;;5036775;28;20152;-67
2021/11/06 03:29:58;;;;;;;24.83;2.92;;;10.30;99.90;;;;;;5050553;28;20033;-67
2021/11/06 03:32:24;;;;;;;17.67;2.20;;;10.30;99.90;;;;;;5056799;28;20035;-67
2021/11/06 03:34:49;;;;;;;29.33;3.38;;;10.30;99.90;;;;;;5048291;28;20033;-67
2021/11/06 03:37:15;;;;;;;16.55;2.67;;;10.20;99.90;;;;;;5037011;28;20045;-67
2021/11/06 03:39:41;;;;;;;24.85;3.08;;;10.10;99.90;;;;;;5039009;28;20047;-67
2021/11/06 03:42:07;;;;;;;23.38;2.97;;;10.10;99.90;;;;;;5056007;28;20100;-67
2021/11/06 03:44:33;;;;;;;36.00;3.70;;;10.10;99.90;;;;;;5056835;28;20480;-67
2021/11/06 03:46:59;;;;;;;35.70;3.00;;;10.10;99.90;;;;;;5052553;28;20512;-67
2021/11/06 03:49:25;;;;;;;24.23;3.40;;;10.10;99.90;;;;;;5055989;28;20104;-67
2021/11/06 03:51:51;;;;;;;27.75;3.25;;;10.10;99.90;;;;;;5053752;28;20060;-67
2021/11/06 03:54:17;;;;;;;19.08;2.72;;;10.20;99.90;;;;;;5056427;28;20021;-67
2021/11/06 03:56:43;;;;;;;29.67;3.15;;;10.30;99.90;;;;;;5054924;28;20059;-67
2021/11/06 03:59:09;;;;;;;29.05;2.83;;;10.30;99.90;;;;;;5036727;28;20373;-67
2021/11/06 04:01:35;;;;;;;18.52;2.40;;;10.30;99.90;;;;;;5035829;28;20057;-67
2021/11/06 04:04:02;;;;;;;17.13;3.00;;;10.30;99.90;;;;;;5051020;28;20063;-67
2021/11/06 04:06:28;;;;;;;23.25;3.53;;;10.30;99.90;;;;;;5056485;28;20036;-67
2021/11/06 04:08:54;;;;;;;16.17;2.92;;;10.20;99.90;;;;;;5049304;28;20060;-67
2021/11/06 04:11:21;;;;;;;20.83;2.85;;;10.20;99.90;;;;;;5054743;28;20052;-67
2021/11/06 04:13:47;;;;;;;13.57;1.90;;;10.20;99.90;;;;;;5036991;28;20481;-67
2021/11/06 04:16:13;;;;;;;13.65;2.17;;;10.20;99.90;;;;;;5036095;28;20052;-67
2021/11/06 04:18:39;;;;;;;17.42;1.88;;;10.10;99.90;;;;;;5038315;28;20558;-67
2021/11/06 04:21:04;;;;;;;19.00;3.38;;;10.10;99.90;;;;;;5035939;28;20108;-67
2021/11/06 04:23:30;;;;;;;25.55;3.20;;;10.10;99.90;;;;;;5037748;28;20035;-67
2021/11/06 04:25:56;;;;;;;20.10;1.80;;;10.00;99.90;;;;;;5035544;28;20072;-67
2021/11/06 04:28:22;;;;;;;15.55;2.28;;;10.00;99.90;;;;;;5038067;28;20081;-67
2021/11/06 04:30:48;;;;;;;17.27;2.58;;;9.90;99.90;;;;;;5053967;28;20516;-67
2021/11/06 04:33:14;;;;;;;13.93;1.65;;;9.90;99.90;;;;;;5055044;28;20036;-67
2021/11/06 04:35:41;;;;;;;16.67;2.25;;;9.90;99.90;;;;;;5054433;28;20096;-67
2021/11/06 04:38:06;;;;;;;23.27;2.50;;;9.80;99.90;;;;;;5050454;28;20040;-67
2021/11/06 04:40:32;;;;;;;16.60;2.35;;;9.80;99.90;;;;;;5036386;28;20026;-67
2021/11/06 04:42:57;;;;;;;19.13;3.00;;;9.80;99.90;;;;;;5034958;28;20040;-67
2021/11/06 04:45:23;;;;;;;32.35;2.85;;;9.70;99.90;;;;;;5054898;28;20025;-67
2021/11/06 04:47:49;;;;;;;17.58;1.52;;;9.70;99.90;;;;;;5055704;28;20017;-67
2021/11/06 04:50:15;;;;;;;14.25;2.65;;;9.70;99.90;;;;;;5051752;28;20043;-67
2021/11/06 04:52:40;;;;;;;20.75;2.63;;;9.60;99.90;;;;;;5055317;28;20392;-67
2021/11/06 04:55:09;;;;;;;14.02;2.70;;;9.70;99.90;;;;;;5044913;28;20037;-67
2021/11/06 04:57:35;;;;;;;27.05;2.88;;;9.70;99.90;;;;;;5041069;28;20162;-68
2021/11/06 05:00:01;;;;;;;23.77;2.53;;;9.80;99.90;;;;;;5055161;28;20064;-67
2021/11/06 05:02:26;;;;;;;20.17;2.10;;;9.80;99.90;;;;;;5052485;28;20013;-67
2021/11/06 05:04:52;;;;;;;20.30;2.85;;;9.80;99.90;;;;;;5036956;28;20029;-67
2021/11/06 05:07:17;;;;;;;22.80;2.13;;;9.80;99.90;;;;;;5035450;28;20096;-67
2021/11/06 05:09:43;;;;;;;15.52;1.92;;;9.80;99.90;;;;;;5048479;28;20473;-67
2021/11/06 05:12:11;;;;;;;11.60;2.00;;;9.70;99.90;;;;;;5054129;28;20017;-67
2021/11/06 05:14:37;;;;;;;14.68;2.85;;;9.70;99.90;;;;;;5052662;28;20025;-67
2021/11/06 05:17:02;;;;;;;16.25;2.08;;;9.60;99.90;;;;;;5055147;28;20017;-67
2021/11/06 05:19:28;;;;;;;26.35;3.20;;;9.60;99.90;;;;;;5041526;28;20423;-67
2021/11/06 05:21:54;;;;;;;14.48;2.22;;;9.60;99.90;;;;;;5035106;28;20429;-67
2021/11/06 05:24:20;;;;;;;22.48;3.03;;;9.60;99.90;;;;;;5042707;28;20032;-67
2021/11/06 05:26:46;;;;;;;35.40;3.03;;;9.70;99.90;;;;;;5054703;28;20025;-67
2021/11/06 05:29:12;;;;;;;29.40;2.42;;;9.70;99.90;;;;;;5051570;28;20101;-67
2021/11/06 05:31:39;;;;;;;16.95;2.28;;;9.80;99.90;;;;;;5034985;28;20033;-67
2021/11/06 05:34:06;;;;;;;32.67;3.05;;;9.90;99.90;;;;;;5034830;28;20033;-67
2021/11/06 05:36:32;;;;;;;18.52;2.20;;;9.90;99.90;;;;;;5034407;28;20037;-67
2021/11/06 05:38:58;;;;;;;16.70;2.00;;;9.90;99.90;;;;;;5034897;28;20026;-67
2021/11/06 05:41:24;;;;;;;22.65;3.10;;;9.90;99.90;;;;;;5034615;28;20033;-67
2021/11/06 05:43:49;;;;;;;26.38;2.97;;;9.90;99.90;;;;;;5033912;28;20550;-67
2021/11/06 05:46:16;;;;;;;20.05;2.85;;;9.90;99.90;;;;;;5034424;28;20385;-67
2021/11/06 05:48:42;;;;;;;15.85;1.98;;;9.90;99.90;;;;;;5034335;28;20025;-67
2021/11/06 05:51:08;;;;;;;16.40;2.80;;;9.90;99.90;;;;;;5034288;28;20033;-67
2021/11/06 05:53:33;;;;;;;15.98;2.63;;;10.00;99.90;;;;;;5034013;28;20060;-67
2021/11/06 05:55:59;;;;;;;31.50;4.63;;;10.00;99.90;;;;;;5034203;28;20108;-67
2021/11/06 05:58:24;;;;;;;17.98;2.65;;;10.00;99.90;;;;;;5034183;28;20401;-67
2021/11/06 06:00:50;;;;;;;16.17;2.17;;;10.00;99.90;;;;;;5034293;28;20109;-67
2021/11/06 06:03:17;;;;;;;24.58;3.08;;;10.00;99.90;;;;;;5034019;28;20026;-67
2021/11/06 06:05:43;;;;;;;13.70;2.42;;;10.00;99.90;;;;;;5033514;28;20508;-67
2021/11/06 06:08:09;;;;;;;24.33;3.63;;;10.00;99.90;;;;;;5034006;28;20061;-67
2021/11/06 06:10:35;;;;;;;13.43;2.55;;;10.00;99.90;;;;;;5032725;28;20061;-67
2021/11/06 06:13:00;;;;;;;21.17;2.55;;;10.00;99.90;;;;;;5034122;28;20056;-67
2021/11/06 06:15:26;;;;;;;11.60;2.20;;;10.00;99.90;;;;;;5033398;28;20029;-67
2021/11/06 06:17:52;;;;;;;21.17;3.28;;;10.00;99.90;;;;;;5033801;28;20029;-67
2021/11/06 06:20:19;;;;;;;24.45;2.00;;;10.00;99.90;;;;;;5033787;28;20022;-67
2021/11/06 06:22:45;;;;;;;18.15;2.85;;;10.00;99.90;;;;;;5032410;28;20057;-67
2021/11/06 06:25:12;;;;;;;10.18;2.08;;;10.00;99.90;;;;;;5034063;28;20022;-67
2021/11/06 06:27:39;;;;;;;18.13;2.60;;;10.00;99.90;;;;;;5048515;28;20036;-67
2021/11/06 06:30:08;;;;;;;20.77;2.53;;;10.10;99.90;;;;;;5033915;28;20029;-67
2021/11/06 06:32:33;;;;;;;25.65;3.50;;;10.20;99.90;;;;;;5033824;28;20028;-67
2021/11/06 06:34:59;;;;;;;32.33;2.88;;;10.20;99.90;;;;;;5033360;28;20021;-67
2021/11/06 06:37:24;;;;;;;25.38;2.28;;;10.20;99.90;;;;;;5033546;28;20416;-67
2021/11/06 06:39:50;;;;;;;22.08;3.08;;;10.20;99.90;;;;;;5033705;28;20534;-67
2021/11/06 06:42:17;;;;;;;17.70;2.25;;;10.30;99.90;;;;;;5033731;28;20029;-67
2021/11/06 06:44:42;;;;;;;24.08;2.03;;;10.30;99.90;;;;;;5033630;28;20025;-67
2021/11/06 06:47:10;;;;;;;18.27;2.72;;;10.30;99.90;;;;;;5033448;28;20362;-67
2021/11/06 06:49:35;;;;;;;26.42;3.33;;;10.40;99.90;;;;;;5033011;28;20033;-67
2021/11/06 06:52:01;;;;;;;24.20;3.42;;;10.40;99.90;;;;;;5033330;28;20022;-67
2021/11/06 06:54:26;;;;;;;15.15;2.90;;;10.40;99.90;;;;;;5033271;28;20044;-67
2021/11/06 06:56:52;;;;;;;25.27;3.25;;;10.50;99.90;;;;;;5033263;28;20040;-67
2021/11/06 06:59:18;;;;;;;38.05;3.10;;;10.40;99.90;;;;;;5033490;28;20030;-67
2021/11/06 07:01:46;;;;;;;21.38;3.05;;;10.40;99.90;;;;;;5032678;28;20021;-67
2021/11/06 07:04:11;;;;;;;31.95;3.20;;;10.40;99.90;;;;;;5033387;28;20056;-67
2021/11/06 07:06:37;;;;;;;20.13;2.65;;;10.40;99.90;;;;;;5049398;28;20045;-67
2021/11/06 07:09:03;;;;;;;24.50;2.88;;;10.50;99.90;;;;;;5053003;28;20017;-67
2021/11/06 07:11:29;;;;;;;32.67;3.17;;;10.50;99.90;;;;;;5053036;28;20430;-67
2021/11/06 07:13:54;;;;;;;33.28;3.30;;;10.50;99.90;;;;;;5052242;28;20021;-67
2021/11/06 07:16:20;;;;;;;14.85;2.78;;;10.40;99.90;;;;;;5053286;28;20033;-67
2021/11/06 07:18:46;;;;;;;25.63;3.38;;;10.40;99.90;;;;;;5053219;28;20071;-67
2021/11/06 07:21:11;;;;;;;17.67;2.85;;;10.40;99.90;;;;;;5052684;28;20104;-67
2021/11/06 07:23:37;;;;;;;11.20;2.28;;;10.40;99.90;;;;;;5076712;22;20045;-69
2021/11/06 07:26:03;;;;;;;16.38;2.08;;;10.40;99.90;;;;;;5052890;28;20038;-68
2021/11/06 07:28:30;;;;;;;29.35;2.45;;;10.40;99.90;;;;;;5052294;28;20546;-69
2021/11/06 07:30:59;;;;;;;20.67;2.20;;;10.40;99.90;;;;;;5052849;28;20534;-69
2021/11/06 07:33:25;;;;;;;25.80;2.85;;;10.40;99.90;;;;;;5053232;28;20044;-69
2021/11/06 07:35:51;;;;;;;26.70;2.50;;;10.40;99.90;;;;;;5052363;28;20131;-68
2021/11/06 07:38:16;;;;;;;16.63;3.28;;;10.50;99.90;;;;;;5052619;28;20084;-68
2021/11/06 07:40:43;;;;;;;17.55;2.20;;;10.50;99.90;;;;;;5053236;28;20453;-69
2021/11/06 07:43:10;;;;;;;21.30;3.28;;;10.50;99.90;;;;;;5052582;28;20400;-69
2021/11/06 07:45:36;;;;;;;27.27;2.80;;;10.60;99.90;;;;;;5053275;28;20488;-69
2021/11/06 07:48:02;;;;;;;25.85;2.92;;;10.60;99.90;;;;;;5052705;28;20032;-69
2021/11/06 07:50:28;;;;;;;15.10;2.60;;;10.70;99.90;;;;;;5052089;28;20029;-69
2021/11/06 07:52:54;;;;;;;13.40;2.38;;;10.70;99.90;;;;;;5052384;28;20025;-68
2021/11/06 07:55:20;;;;;;;12.30;1.95;;;10.70;99.90;;;;;;5035592;28;20080;-69
2021/11/06 07:57:46;;;;;;;16.65;2.42;;;10.70;99.90;;;;;;5033200;28;20036;-69
2021/11/06 08:00:15;;;;;;;43.90;3.33;;;10.70;99.90;;;;;;5035344;28;20034;-69
2021/11/06 08:02:41;;;;;;;15.25;2.80;;;10.80;99.90;;;;;;5035807;28;20358;-69
2021/11/06 08:05:10;;;;;;;23.45;2.90;;;10.80;99.90;;;;;;5044261;28;20017;-69
2021/11/06 08:07:36;;;;;;;17.48;2.30;;;10.80;99.90;;;;;;5056150;28;20071;-69
2021/11/06 08:10:03;;;;;;;19.92;3.25;;;10.90;99.90;;;;;;5052817;28;20028;-69
2021/11/06 08:12:29;;;;;;;20.40;2.83;;;10.90;99.90;;;;;;5055862;28;20036;-69
2021/11/06 08:14:55;;;;;;;19.73;2.80;;;10.90;99.90;;;;;;5051482;28;20021;-69
2021/11/06 08:17:21;;;;;;;33.72;3.55;;;10.90;99.90;;;;;;5055743;28;20029;-69
2021/11/06 08:19:47;;;;;;;28.95;4.93;;;11.00;99.90;;;;;;5055508;28;20095;-69
2021/11/06 08:22:13;;;;;;;22.17;3.60;;;11.00;99.90;;;;;;5055486;28;20092;-69
2021/11/06 08:24:39;;;;;;;21.65;3.17;;;11.00;99.90;;;;;;5055606;28;20037;-69
2021/11/06 08:27:06;;;;;;;35.30;4.47;;;11.00;99.90;;;;;;5055826;28;20065;-69
2021/11/06 08:29:32;;;;;;;18.95;3.35;;;11.10;99.90;;;;;;5055248;28;20494;-69
2021/11/06 08:31:58;;;;;;;25.80;3.25;;;11.10;99.90;;;;;;5056066;28;20025;-69
2021/11/06 08:34:28;;;;;;;32.70;4.53;;;11.10;99.90;;;;;;5055781;28;20057;-69
2021/11/06 08:36:55;;;;;;;31.80;3.97;;;11.20;99.90;;;;;;5056217;28;20100;-69
2021/11/06 08:39:21;;;;;;;31.70;3.88;;;11.20;99.90;;;;;;5055126;28;20024;-68
2021/11/06 08:41:51;;;;;;;26.35;3.10;;;11.20;99.90;;;;;;5055464;28;20369;-69
2021/11/06 08:44:21;;;;;;;34.30;4.57;;;11.10;99.90;;;;;;5035506;28;20071;-69
2021/11/06 08:46:50;;;;;;;35.95;3.78;;;11.20;99.90;;;;;;5035577;28;20022;-69
2021/11/06 08:49:16;;;;;;;27.90;5.32;;;11.20;99.90;;;;;;5035508;28;20040;-69
2021/11/06 08:51:46;;;;;;;34.47;7.05;;;11.30;99.90;;;;;;5035483;28;20075;-69
2021/11/06 08:54:13;;;;;;;38.80;5.75;;;11.30;99.90;;;;;;5041044;28;20102;-68
2021/11/06 08:56:39;;;;;;;46.50;5.63;;;11.40;99.90;;;;;;5055328;28;20032;-68
2021/11/06 08:59:05;;;;;;;46.33;7.05;;;11.30;99.90;;;;;;5055140;28;20537;-68
2021/11/06 09:01:30;;;;;;;44.47;7.45;;;11.40;99.90;;;;;;5037215;28;20477;-69
2021/11/06 09:03:57;;;;;;;47.50;9.45;;;11.40;99.90;;;;;;5035201;28;20064;-69
2021/11/06 09:06:23;;;;;;;53.83;7.95;;;11.40;99.90;;;;;;5037793;28;20057;-69
2021/11/06 09:08:49;;;;;;;51.63;6.70;;;11.40;99.90;;;;;;5043958;28;20050;-69
2021/11/06 09:11:17;;;;;;;55.90;8.05;;;11.40;99.90;;;;;;5067724;28;20119;-69
2021/11/06 09:13:49;;;;;;;41.90;6.50;;;11.30;99.90;;;;;;5054591;28;20021;-69
2021/11/06 09:16:15;;;;;;;46.63;7.20;;;11.30;99.90;;;;;;5054434;28;20025;-70
2021/11/06 09:18:41;;;;;;;39.38;8.50;;;11.30;99.90;;;;;;5055381;28;20021;-69
2021/11/06 09:21:09;;;;;;;65.78;8.45;;;11.30;99.90;;;;;;5054714;28;20078;-69
2021/11/06 09:23:35;;;;;;;56.80;10.45;;;11.30;99.90;;;;;;5054002;28;20028;-69
2021/11/06 09:26:01;;;;;;;50.58;11.00;;;11.30;99.90;;;;;;5037852;28;20028;-69
2021/11/06 09:28:27;;;;;;;52.17;10.40;;;11.20;99.90;;;;;;5034201;28;20013;-69
2021/11/06 09:30:54;;;;;;;68.70;11.45;;;11.20;99.90;;;;;;5046226;28;20484;-69
2021/11/06 09:33:20;;;;;;;69.65;11.80;;;11.20;99.90;;;;;;5053295;28;20029;-69
2021/11/06 09:35:46;;;;;;;61.55;12.30;;;11.20;99.90;;;;;;5054277;28;20039;-68
2021/11/06 09:38:12;;;;;;;60.08;11.45;;;11.20;99.90;;;;;;5053836;28;20036;-69
2021/11/06 09:40:38;;;;;;;60.45;11.63;;;11.30;99.90;;;;;;5036992;28;20025;-69
2021/11/06 09:43:03;;;;;;;60.75;13.05;;;11.30;99.90;;;;;;5034726;28;20427;-69
2021/11/06 09:45:29;;;;;;;74.55;13.77;;;11.30;99.90;;;;;;5036102;28;20477;-69
2021/11/06 09:47:55;;;;;;;77.95;13.68;;;11.30;99.90;;;;;;5033907;28;20029;-69
2021/11/06 09:50:22;;;;;;;63.13;14.50;;;11.30;99.90;;;;;;5048757;28;20392;-69
2021/11/06 09:52:50;;;;;;;65.35;13.38;;;11.30;99.90;;;;;;5054528;28;20029;-69
2021/11/06 09:55:18;;;;;;;58.40;15.82;;;11.30;99.90;;;;;;5041348;28;20030;-69
2021/11/06 09:57:45;;;;;;;58.35;13.27;;;11.30;99.90;;;;;;5045438;28;20388;-68
2021/11/06 10:00:12;;;;;;;76.88;14.52;;;11.20;99.90;;;;;;5054020;28;20017;-68
2021/11/06 10:02:38;;;;;;;79.47;15.43;;;11.20;99.90;;;;;;5048980;28;20581;-68
2021/11/06 10:05:05;;;;;;;67.68;14.70;;;11.20;99.90;;;;;;5036751;28;20021;-68
2021/11/06 10:07:31;;;;;;;83.72;16.75;;;11.20;99.90;;;;;;5053907;28;20025;-69
2021/11/06 10:10:27;;;;;;;57.28;15.05;;;11.20;99.90;;;;;;5053745;28;20388;-68
2021/11/06 10:12:57;;;;;;;79.38;14.60;;;11.20;99.90;;;;;;5052071;28;20120;-69
2021/11/06 10:15:25;;;;;;;66.75;14.32;;;11.30;99.90;;;;;;5051886;28;20373;-69
2021/11/06 10:17:51;;;;;;;59.17;15.52;;;11.30;99.90;;;;;;5054332;28;20354;-69
2021/11/06 10:20:33;;;;;;;73.88;15.95;;;11.30;99.90;;;;;;5053489;28;20033;-68
2021/11/06 10:23:02;;;;;;;58.97;12.95;;;11.30;99.90;;;;;;5053188;28;20479;-69
2021/11/06 10:25:28;;;;;;;56.13;14.23;;;11.40;99.90;;;;;;5053105;28;20056;-68
2021/11/06 10:28:03;;;;;;;52.20;13.50;;;11.40;99.90;;;;;;5053608;28;20499;-69
2021/11/06 10:30:37;;;;;;;51.72;15.10;;;11.40;99.90;;;;;;5053315;28;20025;-69
2021/11/06 10:33:14;;;;;;;60.75;17.33;;;11.30;99.90;;;;;;5053767;28;20036;-68
2021/11/06 10:35:44;;;;;;;61.33;13.73;;;11.30;99.90;;;;;;5052933;28;20031;-69
2021/11/06 10:38:14;;;;;;;56.30;13.93;;;11.40;99.90;;;;;;5053416;28;20490;-69
2021/11/06 10:40:44;;;;;;;62.10;15.98;;;11.30;99.90;;;;;;5053284;28;20054;-69
2021/11/06 10:43:13;;;;;;;61.40;15.20;;;11.30;99.90;;;;;;5053501;28;20074;-69
2021/11/06 10:45:57;;;;;;;50.47;14.75;;;11.30;99.90;;;;;;5050920;28;20092;-69
2021/11/06 10:48:27;;;;;;;50.58;12.73;;;11.30;99.90;;;;;;5044926;28;20025;-69
2021/11/06 10:51:09;;;;;;;60.75;13.45;;;11.40;99.90;;;;;;5033664;28;20033;-69
2021/11/06 10:53:43;;;;;;;47.17;13.07;;;11.30;99.90;;;;;;5036202;28;20029;-68
2021/11/06 10:56:31;;;;;;;46.80;11.55;;;11.40;99.90;;;;;;5033303;28;20068;-68
2021/11/06 10:59:03;;;;;;;46.03;12.20;;;11.40;99.90;;;;;;5032902;28;20393;-68
2021/11/06 11:01:32;;;;;;;60.10;13.05;;;11.40;99.90;;;;;;5033059;28;20021;-68
2021/11/06 11:04:04;;;;;;;51.03;12.73;;;11.30;99.90;;;;;;5033152;28;20156;-68
2021/11/06 11:06:43;;;;;;;50.78;13.32;;;11.30;99.90;;;;;;5045530;28;20072;-68
2021/11/06 11:09:12;;;;;;;59.13;14.35;;;11.30;99.90;;;;;;5052082;28;20382;-68
2021/11/06 11:11:38;;;;;;;54.25;15.27;;;11.20;99.90;;;;;;5053045;28;20032;-68
2021/11/06 11:14:13;;;;;;;72.45;14.68;;;11.20;99.90;;;;;;5053215;28;20035;-68
2021/11/06 11:16:57;;;;;;;59.85;16.40;;;11.20;99.90;;;;;;5052979;28;20025;-68
2021/11/06 11:19:36;;;;;;;58.03;16.48;;;11.20;99.90;;;;;;5053186;28;20025;-69
2021/11/06 11:22:04;;;;;;;60.45;15.18;;;11.20;99.90;;;;;;5052683;28;20025;-68
2021/11/06 11:24:30;;;;;;;72.55;17.38;;;11.20;99.90;;;;;;5052137;28;20051;-68
2021/11/06 11:26:57;;;;;;;73.32;18.70;;;11.10;99.90;;;;;;5051608;28;20029;-68
2021/11/06 11:29:34;;;;;;;51.83;16.10;;;11.10;99.90;;;;;;5051601;28;20037;-68
2021/11/06 11:32:00;;;;;;;49.53;16.58;;;11.10;99.90;;;;;;5032849;28;20080;-68
2021/11/06 11:34:26;;;;;;;64.95;17.90;;;11.10;99.90;;;;;;5032865;28;20044;-68
2021/11/06 11:36:53;;;;;;;64.97;19.42;;;11.10;99.90;;;;;;5036352;28;20026;-68
2021/11/06 11:39:22;;;;;;;61.67;18.92;;;11.10;99.90;;;;;;5036859;28;20021;-68
2021/11/06 11:41:56;;;;;;;61.55;19.77;;;11.10;99.90;;;;;;5036711;28;20393;-68
2021/11/06 11:44:50;;;;;;;60.60;20.55;;;11.00;99.90;;;;;;5036302;28;20107;-68
2021/11/06 11:47:25;;;;;;;63.30;20.30;;;11.00;99.90;;;;;;5037046;28;20033;-68
2021/11/06 11:49:57;;;;;;;50.10;18.05;;;11.00;99.90;;;;;;5037010;28;20028;-68
2021/11/06 11:52:37;;;;;;;76.57;21.85;;;11.10;99.90;;;;;;5036364;28;20029;-68
2021/11/06 11:55:28;;;;;;;55.60;19.02;;;11.00;99.90;;;;;;5036767;28;20424;-68
2021/11/06 11:58:07;;;;;;;72.65;20.73;;;11.00;99.90;;;;;;5036819;28;20040;-68
2021/11/06 12:00:41;;;;;;;60.00;19.73;;;11.00;99.90;;;;;;5035943;28;20022;-68
2021/11/06 12:03:09;;;;;;;69.65;21.38;;;11.00;99.90;;;;;;5036342;28;20017;-68
2021/11/06 12:05:41;;;;;;;69.15;21.30;;;11.00;99.90;;;;;;5035115;28;20033;-68
2021/11/06 12:08:09;;;;;;;58.67;20.50;;;11.00;99.90;;;;;;5036624;28;20026;-68
2021/11/06 12:10:36;;;;;;;83.78;21.83;;;10.90;99.90;;;;;;5036541;28;20488;-68
2021/11/06 12:13:03;;;;;;;74.78;22.67;;;10.90;99.90;;;;;;5035690;28;20075;-68
2021/11/06 12:15:54;;;;;;;76.80;22.25;;;10.90;99.90;;;;;;5036485;28;20025;-68
2021/11/06 12:18:32;;;;;;;60.67;21.17;;;10.90;99.90;;;;;;5036052;28;20506;-68
2021/11/06 12:21:16;;;;;;;65.90;20.60;;;10.90;99.90;;;;;;5036299;28;20026;-68
2021/11/06 12:23:51;;;;;;;78.10;20.75;;;10.90;99.90;;;;;;5035365;28;20030;-67
2021/11/06 12:26:28;;;;;;;55.97;22.20;;;10.90;99.90;;;;;;5035992;28;20472;-67
2021/11/06 12:29:06;;;;;;;62.90;21.65;;;10.90;99.90;;;;;;5036460;28;20366;-67
2021/11/06 12:31:38;;;;;;;67.50;24.05;;;10.80;99.90;;;;;;5036379;28;20029;-67
2021/11/06 12:34:07;;;;;;;70.20;21.80;;;10.80;99.90;;;;;;5035739;28;20079;-67
2021/11/06 12:36:40;;;;;;;91.75;26.50;;;10.80;99.90;;;;;;5035314;28;20064;-67